Anthony, New Mexico
Current Conditions -  °F | °C
As of 3:58 PM on Tuesday 25 Nov 2014 (Local Time) from KBIF Reporting Station
Clear Clear  
Wind Chill: 53°   Ceiling: Unl
Heat Index: 53°   Visibility: 10mi
Dew Point:   Wind: 9mph
Humidity: 14%   Direction: 260°W
Pressure: 30.3"   Gusts: NA
Location:  32°N, 106.6°W
Report Text: KBIF 252258Z 26008KT 10SM CLR 12/M15 A3030 RMK AO2A SLP248 T01191149 $
Loading
Personal Weather Stations






























Interactive Weather Map New forecast layout! Learn more

10-Day Weather Forecast

Advertisements
Track Severe Weather on mobile